createdAt,value
2018-08-20T00:00:17.156Z,15.48
2018-08-20T00:05:25.971Z,15.45
2018-08-20T00:10:34.993Z,15.32
2018-08-20T00:15:43.863Z,15.27
2018-08-20T00:20:52.987Z,15.26
2018-08-20T00:26:02.039Z,15.27
2018-08-20T00:31:11.229Z,15.25
2018-08-20T00:36:20.198Z,15.21
2018-08-20T00:41:29.188Z,15.24
2018-08-20T00:46:38.455Z,15.41
2018-08-20T00:51:47.723Z,15.62
2018-08-20T00:56:56.440Z,15.83
2018-08-20T01:02:05.840Z,16.01
2018-08-20T01:07:14.991Z,16.25
2018-08-20T01:12:24.270Z,16.55
2018-08-20T01:17:33.323Z,16.83
2018-08-20T01:22:42.167Z,16.96
2018-08-20T01:27:51.156Z,16.97
2018-08-20T01:33:00.964Z,16.71
2018-08-20T01:38:09.912Z,16.43
2018-08-20T01:43:19.083Z,16.26
2018-08-20T01:48:27.805Z,16.11
2018-08-20T01:53:37.112Z,15.99
2018-08-20T01:58:46.268Z,15.81
2018-08-20T02:03:55.175Z,15.67
2018-08-20T02:09:05.549Z,15.64
2018-08-20T02:14:15.044Z,15.68
2018-08-20T02:19:23.835Z,15.56
2018-08-20T02:24:33.336Z,15.41
2018-08-20T02:29:42.147Z,15.51
2018-08-20T02:34:51.412Z,15.50
2018-08-20T02:40:00.467Z,15.47
2018-08-20T02:45:11.616Z,15.42
2018-08-20T02:50:21.274Z,15.33
2018-08-20T02:55:30.428Z,15.40
2018-08-20T03:00:39.273Z,15.41
2018-08-20T03:05:48.714Z,15.34
2018-08-20T03:10:58.276Z,15.19
2018-08-20T03:16:08.494Z,15.14
2018-08-20T03:21:17.001Z,15.07
2018-08-20T03:26:26.638Z,14.97
2018-08-20T03:31:35.456Z,14.95
2018-08-20T03:36:44.267Z,14.90
2018-08-20T03:41:53.245Z,14.85
2018-08-20T03:47:02.580Z,14.84
2018-08-20T03:52:11.422Z,14.79
2018-08-20T03:57:20.847Z,14.78
2018-08-20T04:02:29.933Z,14.75
2018-08-20T04:07:39.056Z,14.78
2018-08-20T04:12:48.532Z,14.91
2018-08-20T04:17:59.447Z,15.02
2018-08-20T04:23:09.025Z,15.10
2018-08-20T04:28:17.829Z,15.25
2018-08-20T04:33:27.393Z,15.45
2018-08-20T04:38:36.254Z,15.65
2018-08-20T04:43:45.056Z,15.86
2018-08-20T04:48:54.002Z,16.17
2018-08-20T04:54:02.733Z,16.47
2018-08-20T04:59:11.727Z,16.79
2018-08-20T05:04:20.567Z,17.08
2018-08-20T05:09:29.755Z,17.48
2018-08-20T05:14:38.791Z,21.05
2018-08-20T05:19:47.978Z,24.31
2018-08-20T05:24:57.085Z,26.60
2018-08-20T05:30:06.803Z,28.26
2018-08-20T05:35:15.892Z,26.72
2018-08-20T05:40:25.602Z,24.07
2018-08-20T05:45:36.245Z,26.99
2018-08-20T05:50:45.830Z,30.25
2018-08-20T05:55:55.418Z,30.72
2018-08-20T06:01:05.014Z,27.74
2018-08-20T06:06:14.477Z,30.65
2018-08-20T06:11:23.391Z,28.42
2018-08-20T06:16:33.204Z,26.06
2018-08-20T06:21:42.692Z,25.19
2018-08-20T06:26:51.449Z,24.60
2018-08-20T06:32:01.492Z,24.03
2018-08-20T06:37:10.565Z,24.55
2018-08-20T06:42:19.206Z,24.31
2018-08-20T06:47:28.418Z,24.59
2018-08-20T06:52:39.128Z,24.75
2018-08-20T06:57:48.582Z,25.28
2018-08-20T07:02:57.946Z,24.89
2018-08-20T07:08:07.341Z,25.22
2018-08-20T07:13:29.775Z,25.83
2018-08-20T07:18:38.620Z,26.14
2018-08-20T07:23:48.044Z,26.32
2018-08-20T07:28:56.773Z,26.22
2018-08-20T07:34:05.971Z,26.24
2018-08-20T07:39:14.991Z,26.46
2018-08-20T07:44:24.278Z,25.53
2018-08-20T07:49:33.853Z,24.98
2018-08-20T07:54:42.895Z,24.07
2018-08-20T07:59:51.975Z,24.07
2018-08-20T08:05:00.822Z,23.05
2018-08-20T08:10:11.795Z,23.34
2018-08-20T08:15:21.154Z,23.50
2018-08-20T08:20:30.679Z,23.68
2018-08-20T08:25:39.809Z,23.79
2018-08-20T08:30:48.902Z,24.38
2018-08-20T08:35:58.819Z,24.24
2018-08-20T08:41:08.271Z,24.24
2018-08-20T08:46:17.307Z,24.03
2018-08-20T08:51:26.597Z,24.14
2018-08-20T08:56:35.787Z,24.28
2018-08-20T09:01:45.283Z,24.86
2018-08-20T09:06:54.087Z,24.92
2018-08-20T09:12:03.824Z,25.48
2018-08-20T09:17:13.320Z,27.12
2018-08-20T09:22:22.620Z,27.49
2018-08-20T09:27:31.461Z,26.96
2018-08-20T09:32:40.555Z,26.83
2018-08-20T09:37:49.671Z,26.79
2018-08-20T09:42:59.007Z,26.52
2018-08-20T09:48:08.009Z,25.96
2018-08-20T09:53:17.249Z,25.93
2018-08-20T09:58:26.556Z,25.99
2018-08-20T10:03:36.278Z,25.11
2018-08-20T10:08:45.970Z,25.22
2018-08-20T10:13:55.248Z,25.41
2018-08-20T10:19:03.975Z,24.95
2018-08-20T10:24:13.488Z,24.17
2018-08-20T10:29:22.656Z,24.26
2018-08-20T10:34:32.079Z,24.61
2018-08-20T10:39:41.338Z,25.45
2018-08-20T10:44:50.190Z,26.25
2018-08-20T10:49:59.579Z,26.42
2018-08-20T10:55:08.916Z,26.75
2018-08-20T11:00:17.989Z,26.32
2018-08-20T11:05:27.525Z,25.50
2018-08-20T11:10:36.600Z,25.71
2018-08-20T11:15:45.786Z,25.14
2018-08-20T11:20:54.642Z,25.37
2018-08-20T11:26:04.366Z,24.15
2018-08-20T11:31:13.973Z,23.92
2018-08-20T11:36:23.466Z,23.73
2018-08-20T11:41:32.811Z,23.88
2018-08-20T11:46:42.359Z,23.64
2018-08-20T11:51:52.156Z,23.92
2018-08-20T11:57:02.026Z,23.86
2018-08-20T12:02:11.076Z,23.93
2018-08-20T12:07:20.396Z,24.65
2018-08-20T12:12:30.365Z,25.67
2018-08-20T12:17:39.546Z,26.09
2018-08-20T12:22:48.386Z,25.56
2018-08-20T12:27:58.072Z,25.20
2018-08-20T12:33:07.704Z,24.63
2018-08-20T12:38:16.876Z,24.12
2018-08-20T12:43:26.582Z,23.98
2018-08-20T12:48:35.788Z,24.57
2018-08-20T12:53:44.830Z,24.92
2018-08-20T12:58:54.121Z,24.87
2018-08-20T13:04:03.629Z,24.95
2018-08-20T13:09:12.933Z,24.71
2018-08-20T13:14:22.132Z,24.07
2018-08-20T13:19:31.147Z,23.93
2018-08-20T13:24:40.308Z,23.88
2018-08-20T13:29:49.660Z,23.89
2018-08-20T13:34:58.914Z,24.11
2018-08-20T13:40:07.847Z,24.68
2018-08-20T13:45:16.764Z,24.49
2018-08-20T13:50:28.530Z,24.62
2018-08-20T13:55:37.865Z,24.20
2018-08-20T14:00:47.009Z,24.31
2018-08-20T14:05:56.075Z,23.91
2018-08-20T14:11:05.299Z,24.70
2018-08-20T14:16:14.230Z,25.54
2018-08-20T14:21:24.100Z,25.88
2018-08-20T14:26:33.337Z,25.73
2018-08-20T14:31:42.305Z,25.05
2018-08-20T14:36:51.726Z,25.43
2018-08-20T14:42:00.869Z,25.29
2018-08-20T14:47:10.094Z,25.56
2018-08-20T14:52:19.291Z,25.32
2018-08-20T14:57:28.267Z,25.47
2018-08-20T15:02:37.138Z,24.69
2018-08-20T15:07:47.072Z,24.12
2018-08-20T15:13:00.063Z,24.34
2018-08-20T15:18:09.157Z,24.58
2018-08-20T15:23:17.983Z,24.61
2018-08-20T15:28:26.965Z,24.70
2018-08-20T15:33:35.862Z,24.25
2018-08-20T15:38:51.611Z,24.08
2018-08-20T15:44:00.945Z,23.85
2018-08-20T15:49:12.259Z,23.84
2018-08-20T15:54:21.323Z,23.97
2018-08-20T15:59:30.456Z,24.12
2018-08-20T16:04:40.010Z,24.22
2018-08-20T16:09:49.215Z,24.20
2018-08-20T16:14:58.399Z,24.34
2018-08-20T16:20:08.077Z,23.99
2018-08-20T16:25:17.695Z,24.23
2018-08-20T16:30:27.038Z,24.10
2018-08-20T16:35:36.141Z,23.62
2018-08-20T16:40:45.231Z,23.51
2018-08-20T16:45:54.294Z,23.51
2018-08-20T16:51:03.276Z,23.28
2018-08-20T16:56:12.185Z,23.04
2018-08-20T17:01:21.377Z,23.08
2018-08-20T17:06:41.789Z,22.98
2018-08-20T17:11:51.037Z,22.75
2018-08-20T17:17:00.378Z,22.59
2018-08-20T17:22:09.167Z,22.59
2018-08-20T17:27:18.155Z,22.49
2018-08-20T17:32:27.013Z,22.47
2018-08-20T17:37:36.394Z,22.42
2018-08-20T17:42:45.630Z,22.40
2018-08-20T17:47:54.975Z,22.36
2018-08-20T17:53:04.186Z,22.31
2018-08-20T17:58:14.598Z,22.20
2018-08-20T18:03:23.934Z,22.11
2018-08-20T18:08:32.528Z,22.06
2018-08-20T18:13:42.571Z,22.04
2018-08-20T18:18:52.132Z,21.94
2018-08-20T18:24:01.190Z,21.95
2018-08-20T18:29:10.618Z,21.82
2018-08-20T18:34:19.499Z,21.77
2018-08-20T18:39:29.075Z,21.87
2018-08-20T18:44:38.545Z,21.86
2018-08-20T18:49:47.462Z,21.94
2018-08-20T18:54:57.295Z,21.95
2018-08-20T19:00:12.182Z,22.06
2018-08-20T19:05:21.398Z,21.97
2018-08-20T19:10:31.017Z,21.91
2018-08-20T19:15:41.017Z,21.85
2018-08-20T19:20:50.491Z,21.87
2018-08-20T19:25:59.586Z,21.86
2018-08-20T19:31:09.154Z,21.92
2018-08-20T19:36:18.851Z,21.87
2018-08-20T19:41:28.523Z,21.84
2018-08-20T19:46:38.083Z,21.95
2018-08-20T19:51:47.978Z,21.94
2018-08-20T19:56:57.444Z,21.82
2018-08-20T20:02:10.654Z,21.62
2018-08-20T20:07:20.089Z,21.58
2018-08-20T20:12:29.146Z,21.36
2018-08-20T20:17:38.658Z,21.36
2018-08-20T20:22:48.319Z,21.45
2018-08-20T20:27:57.484Z,21.46
2018-08-20T20:33:06.816Z,21.47
2018-08-20T20:38:16.414Z,21.33
2018-08-20T20:43:26.016Z,21.34
2018-08-20T20:48:34.755Z,21.22
2018-08-20T20:53:44.367Z,21.29
2018-08-20T20:58:53.725Z,21.14
2018-08-20T21:04:04.475Z,21.02
2018-08-20T21:09:13.960Z,20.85
2018-08-20T21:14:22.908Z,20.69
2018-08-20T21:19:34.444Z,20.66
2018-08-20T21:24:43.072Z,20.41
2018-08-20T21:29:55.162Z,20.37
2018-08-20T21:35:04.137Z,20.50
2018-08-20T21:40:13.381Z,20.59
2018-08-20T21:45:22.441Z,20.81
2018-08-20T21:50:31.921Z,20.85
2018-08-20T21:55:41.107Z,20.83
2018-08-20T22:00:50.602Z,20.81
2018-08-20T22:05:59.327Z,20.75
2018-08-20T22:11:08.809Z,20.83
2018-08-20T22:16:18.346Z,20.86
2018-08-20T22:21:27.280Z,20.84
2018-08-20T22:26:39.655Z,20.71
2018-08-20T22:31:48.947Z,20.61
2018-08-20T22:36:58.116Z,20.34
2018-08-20T22:42:07.481Z,20.21
2018-08-20T22:47:16.410Z,20.08
2018-08-20T22:52:25.543Z,20.06
2018-08-20T22:57:34.745Z,20.09
2018-08-20T23:02:43.833Z,19.95
2018-08-20T23:07:53.826Z,19.68
2018-08-20T23:13:02.569Z,19.62
2018-08-20T23:18:12.231Z,19.31
2018-08-20T23:23:21.555Z,19.04
2018-08-20T23:28:30.387Z,18.81
2018-08-20T23:33:39.866Z,18.59
2018-08-20T23:38:48.825Z,18.40
2018-08-20T23:43:57.921Z,18.37
2018-08-20T23:49:06.830Z,18.40
2018-08-20T23:54:16.292Z,18.50
2018-08-20T23:59:25.585Z,18.52
